Time,TemperatureF,DewpointF,PressureIn,WindDirection,WindDirectionDegrees,WindSpeedMPH,WindSpeedGustMPH,Humidity,HourlyPrecipIn,Conditions,Clouds,dailyrainin,SoftwareType,DateUTC
2013-03-03 00:01:00,30.0,25.0,30.08,North,350,3.0,12.0,80,0.00,,,0.01,,2013-03-03 06:01:00,
2013-03-03 00:11:00,30.0,25.0,30.08,North,350,3.0,12.0,80,0.00,,,0.01,,2013-03-03 06:11:00,
2013-03-03 00:21:00,30.0,24.0,30.08,North,352,8.0,14.0,79,0.00,,,0.01,,2013-03-03 06:21:00,
2013-03-03 00:31:00,30.0,24.0,30.08,North,354,9.0,12.0,78,0.00,,,0.01,,2013-03-03 06:31:00,
2013-03-03 00:42:00,30.0,24.0,30.08,North,354,9.0,12.0,78,0.00,,,0.01,,2013-03-03 06:42:00,
2013-03-03 00:52:00,30.0,24.0,30.08,NNW,329,8.0,12.0,77,0.00,,,0.01,,2013-03-03 06:52:00,
2013-03-03 01:01:00,30.0,24.0,30.08,NNW,337,7.0,12.0,77,0.00,,,0.01,,2013-03-03 07:01:00,
2013-03-03 01:11:00,30.0,24.0,30.08,NNW,337,7.0,12.0,77,0.00,,,0.01,,2013-03-03 07:11:00,
2013-03-03 01:21:00,30.0,24.0,30.08,NNW,332,7.0,13.0,78,0.00,,,0.01,,2013-03-03 07:21:00,
2013-03-03 01:31:00,30.0,24.0,30.08,NW,322,8.0,13.0,78,0.00,,,0.01,,2013-03-03 07:31:00,
2013-03-03 01:42:00,30.0,24.0,30.08,NW,322,8.0,13.0,78,0.00,,,0.01,,2013-03-03 07:42:00,
2013-03-03 01:52:00,30.0,24.0,30.08,NNW,339,5.0,14.0,78,0.00,,,0.01,,2013-03-03 07:52:00,
2013-03-03 02:01:00,30.0,24.0,30.08,NNW,335,8.0,12.0,78,0.00,,,0.01,,2013-03-03 08:01:00,
2013-03-03 02:11:00,30.0,24.0,30.08,NNW,335,8.0,12.0,78,0.00,,,0.01,,2013-03-03 08:11:00,
2013-03-03 02:21:00,29.0,23.0,30.07,NNW,333,9.0,16.0,79,0.00,,,0.01,,2013-03-03 08:21:00,
2013-03-03 02:31:00,29.0,23.0,30.07,NNW,332,6.0,12.0,78,0.00,,,0.01,,2013-03-03 08:31:00,
2013-03-03 02:41:00,29.0,23.0,30.07,NNW,332,6.0,12.0,78,0.00,,,0.01,,2013-03-03 08:41:00,
2013-03-03 02:54:00,29.0,23.0,30.07,North,357,6.0,12.0,77,0.00,,,0.01,,2013-03-03 08:54:00,
2013-03-03 03:01:00,29.0,23.0,30.06,NNW,340,4.0,11.0,77,0.00,,,0.01,,2013-03-03 09:01:00,
2013-03-03 03:11:00,29.0,23.0,30.06,NNW,340,4.0,11.0,77,0.00,,,0.01,,2013-03-03 09:11:00,
2013-03-03 03:21:00,29.0,23.0,30.06,North,350,7.0,13.0,77,0.00,,,0.01,,2013-03-03 09:21:00,
2013-03-03 03:32:00,29.0,23.0,30.06,NW,322,5.0,11.0,78,0.00,,,0.01,,2013-03-03 09:32:00,
2013-03-03 03:41:00,29.0,23.0,30.06,NW,322,5.0,11.0,78,0.00,,,0.01,,2013-03-03 09:41:00,
2013-03-03 03:52:00,29.0,23.0,30.06,North,359,5.0,11.0,77,0.00,,,0.01,,2013-03-03 09:52:00,
2013-03-03 04:01:00,29.0,23.0,30.06,NW,325,4.0,11.0,77,0.00,,,0.01,,2013-03-03 10:01:00,
2013-03-03 04:11:00,29.0,23.0,30.06,NW,325,4.0,11.0,77,0.00,,,0.01,,2013-03-03 10:11:00,
2013-03-03 04:21:00,29.0,23.0,30.06,North,349,6.0,12.0,77,0.00,,,0.01,,2013-03-03 10:21:00,
2013-03-03 04:32:00,29.0,23.0,30.06,NNW,339,5.0,11.0,78,0.00,,,0.01,,2013-03-03 10:32:00,
2013-03-03 04:42:00,29.0,23.0,30.06,NNW,339,5.0,11.0,78,0.00,,,0.01,,2013-03-03 10:42:00,
2013-03-03 04:52:00,29.0,23.0,30.06,North,359,7.0,12.0,78,0.00,,,0.01,,2013-03-03 10:52:00,
2013-03-03 05:01:00,28.0,22.0,30.06,NNW,347,6.0,9.0,78,0.00,,,0.01,,2013-03-03 11:01:00,
2013-03-03 05:11:00,28.0,22.0,30.06,NNW,347,6.0,9.0,78,0.00,,,0.01,,2013-03-03 11:11:00,
2013-03-03 05:21:00,28.0,22.0,30.07,NW,311,7.0,12.0,78,0.00,,,0.01,,2013-03-03 11:21:00,
2013-03-03 05:32:00,28.0,22.0,30.07,NNW,336,5.0,11.0,78,0.00,,,0.01,,2013-03-03 11:32:00,
2013-03-03 05:42:00,28.0,22.0,30.07,NNW,336,5.0,11.0,78,0.00,,,0.01,,2013-03-03 11:42:00,
2013-03-03 05:52:00,28.0,22.0,30.07,NNW,332,6.0,10.0,78,0.00,,,0.01,,2013-03-03 11:52:00,
2013-03-03 06:01:00,27.0,21.0,30.07,NNW,330,2.0,8.0,78,0.00,,,0.01,,2013-03-03 12:01:00,
2013-03-03 06:11:00,27.0,21.0,30.07,NNW,330,2.0,8.0,78,0.00,,,0.01,,2013-03-03 12:11:00,
2013-03-03 06:21:00,27.0,21.0,30.07,NNW,335,3.0,7.0,77,0.00,,,0.01,,2013-03-03 12:21:00,
2013-03-03 06:32:00,27.0,21.0,30.07,NNW,335,2.0,6.0,78,0.00,,,0.01,,2013-03-03 12:32:00,
2013-03-03 06:42:00,27.0,21.0,30.07,NNW,335,2.0,6.0,78,0.00,,,0.01,,2013-03-03 12:42:00,
2013-03-03 06:53:00,27.0,21.0,30.08,NNW,332,4.0,8.0,78,0.00,,,0.01,,2013-03-03 12:53:00,
2013-03-03 07:01:00,27.0,21.0,30.08,NW,325,3.0,10.0,77,0.00,,,0.01,,2013-03-03 13:01:00,
2013-03-03 07:11:00,27.0,21.0,30.08,NW,325,3.0,10.0,77,0.00,,,0.01,,2013-03-03 13:11:00,
2013-03-03 07:21:00,27.0,20.0,30.09,NW,326,5.0,11.0,76,0.00,,,0.01,,2013-03-03 13:21:00,
2013-03-03 07:32:00,27.0,20.0,30.09,NW,318,8.0,12.0,75,0.00,,,0.01,,2013-03-03 13:32:00,
2013-03-03 07:42:00,27.0,20.0,30.09,NW,318,8.0,12.0,75,0.00,,,0.01,,2013-03-03 13:42:00,
2013-03-03 07:52:00,28.0,20.0,30.09,North,353,8.0,13.0,72,0.00,,,0.01,,2013-03-03 13:52:00,
2013-03-03 08:02:00,29.0,20.0,30.10,NNW,343,8.0,13.0,68,0.00,,,0.01,,2013-03-03 14:02:00,
2013-03-03 08:11:00,29.0,20.0,30.10,NNW,343,8.0,13.0,68,0.00,,,0.01,,2013-03-03 14:11:00,
2013-03-03 08:21:00,29.0,18.0,30.10,NNW,330,11.0,16.0,63,0.00,,,0.01,,2013-03-03 14:21:00,
2013-03-03 08:32:00,30.0,19.0,30.10,North,7,7.0,16.0,64,0.00,,,0.01,,2013-03-03 14:32:00,
2013-03-03 08:42:00,30.0,19.0,30.10,North,7,7.0,16.0,64,0.00,,,0.01,,2013-03-03 14:42:00,
2013-03-03 08:52:00,30.0,17.0,30.10,North,349,10.0,15.0,58,0.00,,,0.01,,2013-03-03 14:52:00,
2013-03-03 09:01:00,30.0,17.0,30.11,North,7,10.0,17.0,59,0.00,,,0.01,,2013-03-03 15:01:00,
2013-03-03 09:11:00,30.0,17.0,30.11,North,7,10.0,17.0,59,0.00,,,0.01,,2013-03-03 15:11:00,
2013-03-03 09:22:00,31.0,18.0,30.11,North,4,9.0,17.0,57,0.00,,,0.01,,2013-03-03 15:22:00,
2013-03-03 09:32:00,32.0,19.0,30.11,North,353,8.0,13.0,57,0.00,,,0.01,,2013-03-03 15:32:00,
2013-03-03 09:42:00,32.0,19.0,30.11,North,353,8.0,13.0,57,0.00,,,0.01,,2013-03-03 15:42:00,
2013-03-03 09:52:00,30.0,17.0,30.10,NNW,335,8.0,14.0,59,0.00,,,0.01,,2013-03-03 15:52:00,
2013-03-03 10:01:00,32.0,18.0,30.10,North,360,6.0,17.0,55,0.00,,,0.00,,2013-03-03 16:01:00,
2013-03-03 10:12:00,32.0,18.0,30.10,North,360,6.0,17.0,55,0.00,,,0.00,,2013-03-03 16:12:00,
2013-03-03 10:21:00,34.0,19.0,30.11,NW,319,8.0,14.0,54,0.00,,,0.00,,2013-03-03 16:21:00,
2013-03-03 10:31:00,32.0,17.0,30.11,NW,316,6.0,13.0,54,0.00,,,0.00,,2013-03-03 16:31:00,
2013-03-03 10:42:00,32.0,17.0,30.11,NW,316,6.0,13.0,54,0.00,,,0.00,,2013-03-03 16:42:00,
2013-03-03 10:52:00,33.0,19.0,30.11,WNW,302,7.0,14.0,55,0.00,,,0.00,,2013-03-03 16:52:00,
2013-03-03 11:01:00,34.0,17.0,30.11,North,360,5.0,17.0,50,0.00,,,0.00,,2013-03-03 17:01:00,
2013-03-03 11:11:00,34.0,18.0,30.10,NNW,346,8.0,16.0,51,0.00,,,0.00,,2013-03-03 17:11:00,
2013-03-03 11:22:00,34.0,18.0,30.10,NNW,346,8.0,16.0,51,0.00,,,0.00,,2013-03-03 17:22:00,
2013-03-03 11:32:00,35.0,19.0,30.10,NW,312,8.0,15.0,52,0.00,,,0.00,,2013-03-03 17:32:00,
2013-03-03 11:42:00,35.0,19.0,30.10,NW,312,8.0,15.0,52,0.00,,,0.00,,2013-03-03 17:42:00,
2013-03-03 11:52:00,35.0,17.0,30.10,North,349,5.0,20.0,48,0.00,,,0.00,,2013-03-03 17:52:00,
2013-03-03 12:01:00,36.0,18.0,30.09,WNW,282,11.0,17.0,47,0.00,,,0.00,,2013-03-03 18:01:00,
2013-03-03 12:11:00,36.0,18.0,30.09,WNW,282,11.0,17.0,47,0.00,,,0.00,,2013-03-03 18:11:00,
2013-03-03 12:21:00,37.0,18.0,30.08,NNE,23,7.0,16.0,46,0.00,,,0.00,,2013-03-03 18:21:00,
2013-03-03 12:32:00,38.0,19.0,30.08,NW,311,5.0,13.0,46,0.00,,,0.00,,2013-03-03 18:32:00,
2013-03-03 12:42:00,38.0,19.0,30.08,NW,311,5.0,13.0,46,0.00,,,0.00,,2013-03-03 18:42:00,
2013-03-03 12:52:00,38.0,15.0,30.07,North,357,10.0,19.0,38,0.00,,,0.00,,2013-03-03 18:52:00,
2013-03-03 13:01:00,39.0,17.0,30.07,NNW,329,8.0,13.0,41,0.00,,,0.00,,2013-03-03 19:01:00,
2013-03-03 13:11:00,39.0,16.0,30.06,NW,322,11.0,16.0,38,0.00,,,0.00,,2013-03-03 19:11:00,
2013-03-03 13:21:00,39.0,16.0,30.06,NW,322,11.0,16.0,38,0.00,,,0.00,,2013-03-03 19:21:00,
2013-03-03 13:32:00,40.0,18.0,30.05,WNW,296,6.0,17.0,41,0.00,,,0.00,,2013-03-03 19:32:00,
2013-03-03 13:42:00,40.0,18.0,30.05,WNW,296,6.0,17.0,41,0.00,,,0.00,,2013-03-03 19:42:00,
2013-03-03 13:52:00,40.0,17.0,30.05,WNW,292,10.0,17.0,39,0.00,,,0.00,,2013-03-03 19:52:00,
2013-03-03 14:01:00,41.0,19.0,30.04,NNW,342,10.0,16.0,40,0.00,,,0.00,,2013-03-03 20:01:00,
2013-03-03 14:11:00,41.0,19.0,30.04,NNW,342,10.0,16.0,40,0.00,,,0.00,,2013-03-03 20:11:00,
2013-03-03 14:21:00,41.0,17.0,30.04,North,354,13.0,22.0,38,0.00,,,0.00,,2013-03-03 20:21:00,
2013-03-03 14:32:00,41.0,19.0,30.04,NNW,335,7.0,13.0,40,0.00,,,0.00,,2013-03-03 20:32:00,
2013-03-03 14:42:00,41.0,19.0,30.04,NNW,335,7.0,13.0,40,0.00,,,0.00,,2013-03-03 20:42:00,
2013-03-03 14:53:00,42.0,16.0,30.04,North,3,7.0,13.0,35,0.00,,,0.00,,2013-03-03 20:53:00,
2013-03-03 15:01:00,42.0,16.0,30.04,NW,306,9.0,13.0,34,0.00,,,0.00,,2013-03-03 21:01:00,
2013-03-03 15:11:00,42.0,16.0,30.04,NW,306,9.0,13.0,34,0.00,,,0.00,,2013-03-03 21:11:00,
2013-03-03 15:21:00,41.0,15.0,30.04,NNW,330,11.0,17.0,35,0.00,,,0.00,,2013-03-03 21:21:00,
2013-03-03 15:32:00,42.0,15.0,30.04,NW,304,9.0,13.0,33,0.00,,,0.00,,2013-03-03 21:32:00,
2013-03-03 15:41:00,42.0,15.0,30.04,NW,304,9.0,13.0,33,0.00,,,0.00,,2013-03-03 21:41:00,
2013-03-03 15:52:00,42.0,12.0,30.04,NNW,346,9.0,12.0,29,0.00,,,0.00,,2013-03-03 21:52:00,
2013-03-03 16:01:00,42.0,14.0,30.04,North,360,8.0,13.0,31,0.00,,,0.00,,2013-03-03 22:01:00,
2013-03-03 16:11:00,42.0,14.0,30.04,North,360,8.0,13.0,31,0.00,,,0.00,,2013-03-03 22:11:00,
2013-03-03 16:22:00,42.0,14.0,30.04,NNW,329,6.0,16.0,31,0.00,,,0.00,,2013-03-03 22:22:00,
2013-03-03 16:32:00,43.0,14.0,30.04,NNW,330,6.0,11.0,31,0.00,,,0.00,,2013-03-03 22:32:00,
2013-03-03 16:42:00,43.0,14.0,30.04,NNW,330,6.0,11.0,31,0.00,,,0.00,,2013-03-03 22:42:00,
2013-03-03 16:52:00,42.0,13.0,30.03,North,349,9.0,14.0,30,0.00,,,0.00,,2013-03-03 22:52:00,
2013-03-03 17:01:00,42.0,14.0,30.03,North,360,2.0,8.0,31,0.00,,,0.00,,2013-03-03 23:01:00,
2013-03-03 17:11:00,42.0,14.0,30.03,North,360,2.0,8.0,31,0.00,,,0.00,,2013-03-03 23:11:00,
2013-03-03 17:21:00,42.0,14.0,30.03,North,360,7.0,10.0,31,0.00,,,0.00,,2013-03-03 23:21:00,
2013-03-03 17:31:00,42.0,14.0,30.03,North,354,3.0,7.0,32,0.00,,,0.00,,2013-03-03 23:31:00,
2013-03-03 17:41:00,42.0,14.0,30.03,North,354,3.0,7.0,32,0.00,,,0.00,,2013-03-03 23:41:00,
2013-03-03 17:52:00,41.0,15.0,30.03,North,356,1.0,5.0,34,0.00,,,0.00,,2013-03-03 23:52:00,
2013-03-03 18:01:00,40.0,15.0,30.03,North,356,0.0,3.0,35,0.00,,,0.00,,2013-03-04 00:01:00,
2013-03-03 18:11:00,40.0,15.0,30.03,North,356,0.0,3.0,35,0.00,,,0.00,,2013-03-04 00:11:00,
2013-03-03 18:21:00,40.0,15.0,30.03,North,356,0.0,2.0,36,0.00,,,0.00,,2013-03-04 00:21:00,
2013-03-03 18:32:00,39.0,19.0,30.03,North,356,0.0,0.0,44,0.00,,,0.00,,2013-03-04 00:32:00,
2013-03-03 18:42:00,39.0,19.0,30.03,North,356,0.0,0.0,44,0.00,,,0.00,,2013-03-04 00:42:00,
2013-03-03 18:52:00,38.0,20.0,30.04,North,356,0.0,0.0,47,0.00,,,0.00,,2013-03-04 00:52:00,
2013-03-03 19:01:00,37.0,19.0,30.04,North,356,0.0,0.0,47,0.00,,,0.00,,2013-03-04 01:01:00,
2013-03-03 19:11:00,37.0,19.0,30.04,North,356,0.0,0.0,47,0.00,,,0.00,,2013-03-04 01:11:00,
2013-03-03 19:21:00,36.0,18.0,30.05,North,356,0.0,0.0,47,0.00,,,0.00,,2013-03-04 01:21:00,
2013-03-03 19:32:00,35.0,19.0,30.05,North,356,0.0,0.0,51,0.00,,,0.00,,2013-03-04 01:32:00,
2013-03-03 19:42:00,35.0,19.0,30.05,North,356,0.0,0.0,51,0.00,,,0.00,,2013-03-04 01:42:00,
2013-03-03 19:52:00,35.0,19.0,30.05,North,356,0.0,0.0,51,0.00,,,0.00,,2013-03-04 01:52:00,
2013-03-03 20:01:00,34.0,21.0,30.05,North,356,0.0,0.0,58,0.00,,,0.00,,2013-03-04 02:01:00,
2013-03-03 20:11:00,33.0,19.0,30.05,NNW,346,0.0,0.0,57,0.00,,,0.00,,2013-03-04 02:11:00,
2013-03-03 20:22:00,33.0,19.0,30.05,NNW,346,0.0,0.0,57,0.00,,,0.00,,2013-03-04 02:22:00,
2013-03-03 20:32:00,33.0,22.0,30.05,NNW,346,0.0,0.0,64,0.00,,,0.00,,2013-03-04 02:32:00,
2013-03-03 20:42:00,33.0,22.0,30.05,NNW,346,0.0,0.0,64,0.00,,,0.00,,2013-03-04 02:42:00,
2013-03-03 20:52:00,33.0,22.0,30.04,NNW,346,0.0,0.0,64,0.00,,,0.00,,2013-03-04 02:52:00,
2013-03-03 21:01:00,32.0,20.0,30.04,NNW,346,0.0,0.0,61,0.00,,,0.00,,2013-03-04 03:01:00,
2013-03-03 21:11:00,32.0,20.0,30.04,NNW,346,0.0,0.0,61,0.00,,,0.00,,2013-03-04 03:11:00,
2013-03-03 21:21:00,32.0,21.0,30.04,NNW,346,0.0,0.0,64,0.00,,,0.00,,2013-03-04 03:21:00,
2013-03-03 21:32:00,31.0,20.0,30.04,NNW,346,2.0,2.0,64,0.00,,,0.00,,2013-03-04 03:32:00,
2013-03-03 21:42:00,30.0,21.0,30.05,North,349,4.0,5.0,68,0.00,,,0.00,,2013-03-04 03:42:00,
2013-03-03 21:52:00,30.0,21.0,30.05,North,349,4.0,5.0,68,0.00,,,0.00,,2013-03-04 03:52:00,
2013-03-03 22:01:00,30.0,22.0,30.05,North,349,3.0,5.0,71,0.00,,,0.00,,2013-03-04 04:01:00,
2013-03-03 22:11:00,30.0,22.0,30.05,North,349,3.0,5.0,71,0.00,,,0.00,,2013-03-04 04:11:00,
2013-03-03 22:22:00,30.0,22.0,30.05,North,349,3.0,5.0,71,0.00,,,0.00,,2013-03-04 04:22:00,
2013-03-03 22:32:00,30.0,21.0,30.04,North,349,0.0,0.0,69,0.00,,,0.00,,2013-03-04 04:32:00,
2013-03-03 22:42:00,30.0,21.0,30.04,North,349,0.0,0.0,69,0.00,,,0.00,,2013-03-04 04:42:00,
2013-03-03 22:52:00,29.0,21.0,30.05,NNW,347,2.0,3.0,72,0.00,,,0.00,,2013-03-04 04:52:00,
2013-03-03 23:01:00,29.0,21.0,30.06,North,349,0.0,0.0,73,0.00,,,0.00,,2013-03-04 05:01:00,
2013-03-03 23:11:00,29.0,21.0,30.06,North,349,0.0,0.0,73,0.00,,,0.00,,2013-03-04 05:11:00,
2013-03-03 23:22:00,29.0,22.0,30.06,North,349,0.0,2.0,75,0.00,,,0.00,,2013-03-04 05:22:00,
2013-03-03 23:31:00,29.0,22.0,30.05,North,349,0.0,0.0,75,0.00,,,0.00,,2013-03-04 05:31:00,
2013-03-03 23:42:00,29.0,22.0,30.05,North,349,0.0,0.0,74,0.00,,,0.00,,2013-03-04 05:42:00,
2013-03-03 23:52:00,29.0,22.0,30.05,North,349,0.0,0.0,74,0.00,,,0.00,,2013-03-04 05:52:00,